sensor_id;sensor_type;location;lat;lon;timestamp;P1;durP1;ratioP1;P2;durP2;ratioP2
2213;SDS011;1113;42.018;23.986;2024-02-21T00:01:35;27.83;;;17.23;;
2213;SDS011;1113;42.018;23.986;2024-02-21T00:04:02;30.02;;;19.20;;
2213;SDS011;1113;42.018;23.986;2024-02-21T00:06:29;38.58;;;20.65;;
2213;SDS011;1113;42.018;23.986;2024-02-21T00:08:56;26.67;;;18.77;;
2213;SDS011;1113;42.018;23.986;2024-02-21T00:11:23;38.10;;;22.98;;
2213;SDS011;1113;42.018;23.986;2024-02-21T00:13:51;32.88;;;22.90;;
2213;SDS011;1113;42.018;23.986;2024-02-21T00:16:18;34.67;;;23.13;;
2213;SDS011;1113;42.018;23.986;2024-02-21T00:18:44;36.20;;;22.67;;
2213;SDS011;1113;42.018;23.986;2024-02-21T00:21:11;33.03;;;21.35;;
2213;SDS011;1113;42.018;23.986;2024-02-21T00:23:43;40.33;;;22.90;;
2213;SDS011;1113;42.018;23.986;2024-02-21T00:26:11;35.17;;;21.27;;
2213;SDS011;1113;42.018;23.986;2024-02-21T00:28:37;34.97;;;21.55;;
2213;SDS011;1113;42.018;23.986;2024-02-21T00:31:06;35.28;;;22.58;;
2213;SDS011;1113;42.018;23.986;2024-02-21T00:33:33;33.15;;;21.35;;
2213;SDS011;1113;42.018;23.986;2024-02-21T00:36:00;32.20;;;20.50;;
2213;SDS011;1113;42.018;23.986;2024-02-21T00:38:26;36.03;;;22.83;;
2213;SDS011;1113;42.018;23.986;2024-02-21T00:40:53;33.17;;;21.95;;
2213;SDS011;1113;42.018;23.986;2024-02-21T00:43:20;37.97;;;21.75;;
2213;SDS011;1113;42.018;23.986;2024-02-21T00:45:48;32.35;;;20.52;;
2213;SDS011;1113;42.018;23.986;2024-02-21T00:48:17;34.30;;;21.10;;
2213;SDS011;1113;42.018;23.986;2024-02-21T00:50:44;34.55;;;23.50;;
2213;SDS011;1113;42.018;23.986;2024-02-21T00:53:09;33.13;;;21.13;;
2213;SDS011;1113;42.018;23.986;2024-02-21T00:55:36;38.05;;;23.40;;
2213;SDS011;1113;42.018;23.986;2024-02-21T00:58:03;41.35;;;24.90;;
2213;SDS011;1113;42.018;23.986;2024-02-21T01:00:30;39.08;;;24.60;;
2213;SDS011;1113;42.018;23.986;2024-02-21T01:02:57;38.95;;;24.83;;
2213;SDS011;1113;42.018;23.986;2024-02-21T01:05:26;33.97;;;23.17;;
2213;SDS011;1113;42.018;23.986;2024-02-21T01:07:54;38.67;;;23.83;;
2213;SDS011;1113;42.018;23.986;2024-02-21T01:10:21;32.65;;;22.92;;
2213;SDS011;1113;42.018;23.986;2024-02-21T01:12:48;53.90;;;38.40;;
2213;SDS011;1113;42.018;23.986;2024-02-21T01:15:15;44.20;;;28.70;;
2213;SDS011;1113;42.018;23.986;2024-02-21T01:17:41;39.97;;;25.02;;
2213;SDS011;1113;42.018;23.986;2024-02-21T01:20:08;38.35;;;25.52;;
2213;SDS011;1113;42.018;23.986;2024-02-21T01:22:37;36.25;;;23.15;;
2213;SDS011;1113;42.018;23.986;2024-02-21T01:25:04;37.78;;;24.02;;
2213;SDS011;1113;42.018;23.986;2024-02-21T01:27:31;41.85;;;24.48;;
2213;SDS011;1113;42.018;23.986;2024-02-21T01:29:58;34.22;;;21.92;;
2213;SDS011;1113;42.018;23.986;2024-02-21T01:32:25;37.38;;;24.33;;
2213;SDS011;1113;42.018;23.986;2024-02-21T01:34:51;32.67;;;21.63;;
2213;SDS011;1113;42.018;23.986;2024-02-21T01:37:18;34.00;;;21.08;;
2213;SDS011;1113;42.018;23.986;2024-02-21T01:39:47;34.38;;;21.42;;
2213;SDS011;1113;42.018;23.986;2024-02-21T01:42:14;30.38;;;19.52;;
2213;SDS011;1113;42.018;23.986;2024-02-21T01:44:41;39.67;;;24.00;;
2213;SDS011;1113;42.018;23.986;2024-02-21T01:47:08;37.70;;;24.55;;
2213;SDS011;1113;42.018;23.986;2024-02-21T01:49:35;34.53;;;21.40;;
2213;SDS011;1113;42.018;23.986;2024-02-21T01:52:02;32.85;;;20.80;;
2213;SDS011;1113;42.018;23.986;2024-02-21T01:54:29;30.17;;;20.40;;
2213;SDS011;1113;42.018;23.986;2024-02-21T01:56:57;29.98;;;20.38;;
2213;SDS011;1113;42.018;23.986;2024-02-21T01:59:24;31.67;;;21.67;;
2213;SDS011;1113;42.018;23.986;2024-02-21T02:01:51;41.53;;;26.42;;
2213;SDS011;1113;42.018;23.986;2024-02-21T02:04:18;56.42;;;34.88;;
2213;SDS011;1113;42.018;23.986;2024-02-21T02:06:46;38.15;;;22.85;;
2213;SDS011;1113;42.018;23.986;2024-02-21T02:09:13;34.13;;;21.13;;
2213;SDS011;1113;42.018;23.986;2024-02-21T02:11:40;31.85;;;19.83;;
2213;SDS011;1113;42.018;23.986;2024-02-21T02:14:08;29.75;;;20.58;;
2213;SDS011;1113;42.018;23.986;2024-02-21T02:16:35;32.97;;;20.80;;
2213;SDS011;1113;42.018;23.986;2024-02-21T02:19:02;32.47;;;20.40;;
2213;SDS011;1113;42.018;23.986;2024-02-21T02:21:29;63.17;;;33.53;;
2213;SDS011;1113;42.018;23.986;2024-02-21T02:23:57;89.40;;;39.97;;
2213;SDS011;1113;42.018;23.986;2024-02-21T02:26:25;33.83;;;20.58;;
2213;SDS011;1113;42.018;23.986;2024-02-21T02:28:52;32.15;;;19.83;;
2213;SDS011;1113;42.018;23.986;2024-02-21T02:31:19;31.58;;;20.58;;
2213;SDS011;1113;42.018;23.986;2024-02-21T02:33:46;32.00;;;20.80;;
2213;SDS011;1113;42.018;23.986;2024-02-21T02:36:13;40.80;;;23.55;;
2213;SDS011;1113;42.018;23.986;2024-02-21T02:38:40;52.67;;;30.50;;
2213;SDS011;1113;42.018;23.986;2024-02-21T02:41:08;37.38;;;22.98;;
2213;SDS011;1113;42.018;23.986;2024-02-21T02:43:35;32.90;;;20.55;;
2213;SDS011;1113;42.018;23.986;2024-02-21T02:46:03;27.35;;;17.38;;
2213;SDS011;1113;42.018;23.986;2024-02-21T02:48:30;31.45;;;18.52;;
2213;SDS011;1113;42.018;23.986;2024-02-21T02:50:57;32.03;;;17.27;;
2213;SDS011;1113;42.018;23.986;2024-02-21T02:53:24;27.10;;;17.92;;
2213;SDS011;1113;42.018;23.986;2024-02-21T02:55:50;34.00;;;18.80;;
2213;SDS011;1113;42.018;23.986;2024-02-21T02:58:19;34.10;;;20.48;;
2213;SDS011;1113;42.018;23.986;2024-02-21T03:00:46;34.20;;;20.25;;
2213;SDS011;1113;42.018;23.986;2024-02-21T03:03:13;29.75;;;17.55;;
2213;SDS011;1113;42.018;23.986;2024-02-21T03:05:39;25.33;;;17.30;;
2213;SDS011;1113;42.018;23.986;2024-02-21T03:08:06;26.35;;;15.82;;
2213;SDS011;1113;42.018;23.986;2024-02-21T03:10:33;33.08;;;20.02;;
2213;SDS011;1113;42.018;23.986;2024-02-21T03:13:00;48.85;;;27.33;;
2213;SDS011;1113;42.018;23.986;2024-02-21T03:15:28;79.40;;;40.80;;
2213;SDS011;1113;42.018;23.986;2024-02-21T03:17:55;60.72;;;35.05;;
2213;SDS011;1113;42.018;23.986;2024-02-21T03:20:22;56.25;;;35.15;;
2213;SDS011;1113;42.018;23.986;2024-02-21T03:22:49;60.47;;;34.58;;
2213;SDS011;1113;42.018;23.986;2024-02-21T03:25:16;36.85;;;24.65;;
2213;SDS011;1113;42.018;23.986;2024-02-21T03:27:42;37.70;;;23.40;;
2213;SDS011;1113;42.018;23.986;2024-02-21T03:30:09;37.35;;;22.88;;
2213;SDS011;1113;42.018;23.986;2024-02-21T03:32:39;33.35;;;21.25;;
2213;SDS011;1113;42.018;23.986;2024-02-21T03:35:06;42.53;;;24.27;;
2213;SDS011;1113;42.018;23.986;2024-02-21T03:37:33;50.20;;;28.45;;
2213;SDS011;1113;42.018;23.986;2024-02-21T03:40:00;43.65;;;25.67;;
2213;SDS011;1113;42.018;23.986;2024-02-21T03:42:27;45.53;;;25.02;;
2213;SDS011;1113;42.018;23.986;2024-02-21T03:44:55;58.70;;;33.25;;
2213;SDS011;1113;42.018;23.986;2024-02-21T03:47:22;51.20;;;27.75;;
2213;SDS011;1113;42.018;23.986;2024-02-21T03:49:51;44.88;;;25.58;;
2213;SDS011;1113;42.018;23.986;2024-02-21T03:52:17;43.35;;;25.83;;
2213;SDS011;1113;42.018;23.986;2024-02-21T03:54:44;38.95;;;22.50;;
2213;SDS011;1113;42.018;23.986;2024-02-21T03:57:11;30.88;;;20.15;;
2213;SDS011;1113;42.018;23.986;2024-02-21T03:59:38;40.97;;;23.40;;
2213;SDS011;1113;42.018;23.986;2024-02-21T04:02:05;39.17;;;26.08;;
2213;SDS011;1113;42.018;23.986;2024-02-21T04:04:34;36.42;;;20.65;;
2213;SDS011;1113;42.018;23.986;2024-02-21T04:07:04;37.92;;;22.63;;
2213;SDS011;1113;42.018;23.986;2024-02-21T04:09:32;36.95;;;22.92;;
2213;SDS011;1113;42.018;23.986;2024-02-21T04:12:00;40.20;;;25.38;;
2213;SDS011;1113;42.018;23.986;2024-02-21T04:14:27;34.88;;;22.25;;
2213;SDS011;1113;42.018;23.986;2024-02-21T04:16:54;37.17;;;21.65;;
2213;SDS011;1113;42.018;23.986;2024-02-21T04:19:21;34.75;;;22.55;;
2213;SDS011;1113;42.018;23.986;2024-02-21T04:21:48;34.40;;;22.52;;
2213;SDS011;1113;42.018;23.986;2024-02-21T04:24:16;37.60;;;21.67;;
2213;SDS011;1113;42.018;23.986;2024-02-21T04:26:43;37.40;;;23.30;;
2213;SDS011;1113;42.018;23.986;2024-02-21T04:29:10;38.50;;;23.70;;
2213;SDS011;1113;42.018;23.986;2024-02-21T04:31:37;54.95;;;31.92;;
2213;SDS011;1113;42.018;23.986;2024-02-21T04:34:05;58.13;;;34.45;;
2213;SDS011;1113;42.018;23.986;2024-02-21T04:36:32;44.08;;;28.13;;
2213;SDS011;1113;42.018;23.986;2024-02-21T04:38:59;46.08;;;28.52;;
2213;SDS011;1113;42.018;23.986;2024-02-21T04:41:27;41.78;;;25.23;;
2213;SDS011;1113;42.018;23.986;2024-02-21T04:43:54;48.67;;;30.75;;
2213;SDS011;1113;42.018;23.986;2024-02-21T04:46:21;50.13;;;30.27;;
2213;SDS011;1113;42.018;23.986;2024-02-21T04:48:48;55.83;;;33.17;;
2213;SDS011;1113;42.018;23.986;2024-02-21T04:51:15;53.28;;;32.00;;
2213;SDS011;1113;42.018;23.986;2024-02-21T04:53:42;55.08;;;33.55;;
2213;SDS011;1113;42.018;23.986;2024-02-21T04:56:09;55.05;;;32.38;;
2213;SDS011;1113;42.018;23.986;2024-02-21T04:58:38;51.45;;;32.03;;
2213;SDS011;1113;42.018;23.986;2024-02-21T05:01:05;52.95;;;33.45;;
2213;SDS011;1113;42.018;23.986;2024-02-21T05:03:33;54.63;;;33.70;;
2213;SDS011;1113;42.018;23.986;2024-02-21T05:05:59;58.97;;;33.92;;
2213;SDS011;1113;42.018;23.986;2024-02-21T05:08:26;57.08;;;34.47;;
2213;SDS011;1113;42.018;23.986;2024-02-21T05:10:54;55.33;;;33.33;;
2213;SDS011;1113;42.018;23.986;2024-02-21T05:13:21;45.08;;;27.88;;
2213;SDS011;1113;42.018;23.986;2024-02-21T05:15:49;38.15;;;25.33;;
2213;SDS011;1113;42.018;23.986;2024-02-21T05:18:17;41.97;;;25.23;;
2213;SDS011;1113;42.018;23.986;2024-02-21T05:20:44;43.00;;;27.10;;
2213;SDS011;1113;42.018;23.986;2024-02-21T05:23:12;48.13;;;30.20;;
2213;SDS011;1113;42.018;23.986;2024-02-21T05:25:39;60.97;;;41.33;;
2213;SDS011;1113;42.018;23.986;2024-02-21T05:28:06;59.53;;;36.13;;
2213;SDS011;1113;42.018;23.986;2024-02-21T05:30:33;60.17;;;36.45;;
2213;SDS011;1113;42.018;23.986;2024-02-21T05:33:05;54.55;;;33.92;;
2213;SDS011;1113;42.018;23.986;2024-02-21T05:35:32;53.65;;;33.38;;
2213;SDS011;1113;42.018;23.986;2024-02-21T05:37:59;54.40;;;31.67;;
2213;SDS011;1113;42.018;23.986;2024-02-21T05:40:26;52.85;;;32.05;;
2213;SDS011;1113;42.018;23.986;2024-02-21T05:42:53;49.55;;;29.88;;
2213;SDS011;1113;42.018;23.986;2024-02-21T05:45:20;49.20;;;32.13;;
2213;SDS011;1113;42.018;23.986;2024-02-21T05:47:48;57.00;;;35.10;;
2213;SDS011;1113;42.018;23.986;2024-02-21T05:50:17;55.70;;;33.72;;
2213;SDS011;1113;42.018;23.986;2024-02-21T05:52:44;58.65;;;34.47;;
2213;SDS011;1113;42.018;23.986;2024-02-21T05:55:12;52.50;;;33.92;;
2213;SDS011;1113;42.018;23.986;2024-02-21T05:57:40;51.53;;;35.05;;
2213;SDS011;1113;42.018;23.986;2024-02-21T06:00:07;53.33;;;34.40;;
2213;SDS011;1113;42.018;23.986;2024-02-21T06:02:34;109.55;;;65.72;;
2213;SDS011;1113;42.018;23.986;2024-02-21T06:05:01;89.97;;;53.72;;
2213;SDS011;1113;42.018;23.986;2024-02-21T06:07:32;145.65;;;88.90;;
2213;SDS011;1113;42.018;23.986;2024-02-21T06:09:59;58.38;;;36.40;;
2213;SDS011;1113;42.018;23.986;2024-02-21T06:12:26;59.35;;;31.50;;
2213;SDS011;1113;42.018;23.986;2024-02-21T06:14:53;54.50;;;31.83;;
2213;SDS011;1113;42.018;23.986;2024-02-21T06:17:20;47.67;;;30.13;;
2213;SDS011;1113;42.018;23.986;2024-02-21T06:19:48;48.88;;;30.13;;
2213;SDS011;1113;42.018;23.986;2024-02-21T06:22:14;52.42;;;33.13;;
2213;SDS011;1113;42.018;23.986;2024-02-21T06:24:43;58.63;;;32.70;;
2213;SDS011;1113;42.018;23.986;2024-02-21T06:27:11;56.72;;;34.35;;
2213;SDS011;1113;42.018;23.986;2024-02-21T06:29:40;67.30;;;36.17;;
2213;SDS011;1113;42.018;23.986;2024-02-21T06:32:07;55.55;;;32.38;;
2213;SDS011;1113;42.018;23.986;2024-02-21T06:34:34;43.72;;;29.63;;
2213;SDS011;1113;42.018;23.986;2024-02-21T06:37:01;76.15;;;40.72;;
2213;SDS011;1113;42.018;23.986;2024-02-21T06:39:28;74.07;;;41.85;;
2213;SDS011;1113;42.018;23.986;2024-02-21T06:41:57;79.10;;;45.33;;
2213;SDS011;1113;42.018;23.986;2024-02-21T06:44:24;75.13;;;44.30;;
2213;SDS011;1113;42.018;23.986;2024-02-21T06:46:51;68.00;;;44.35;;
2213;SDS011;1113;42.018;23.986;2024-02-21T06:49:18;78.53;;;43.95;;
2213;SDS011;1113;42.018;23.986;2024-02-21T06:51:45;78.03;;;44.47;;
2213;SDS011;1113;42.018;23.986;2024-02-21T06:54:12;72.78;;;43.28;;
2213;SDS011;1113;42.018;23.986;2024-02-21T06:56:40;82.53;;;47.58;;
2213;SDS011;1113;42.018;23.986;2024-02-21T06:59:08;77.45;;;47.83;;
2213;SDS011;1113;42.018;23.986;2024-02-21T07:01:36;69.82;;;43.70;;
2213;SDS011;1113;42.018;23.986;2024-02-21T07:04:03;64.10;;;41.83;;
2213;SDS011;1113;42.018;23.986;2024-02-21T07:06:30;63.92;;;41.13;;
2213;SDS011;1113;42.018;23.986;2024-02-21T07:08:57;72.93;;;44.20;;
2213;SDS011;1113;42.018;23.986;2024-02-21T07:11:24;88.55;;;51.28;;
2213;SDS011;1113;42.018;23.986;2024-02-21T07:13:52;80.22;;;48.92;;
2213;SDS011;1113;42.018;23.986;2024-02-21T07:16:20;82.13;;;49.72;;
2213;SDS011;1113;42.018;23.986;2024-02-21T07:18:47;74.80;;;47.05;;
2213;SDS011;1113;42.018;23.986;2024-02-21T07:21:14;68.30;;;45.03;;
2213;SDS011;1113;42.018;23.986;2024-02-21T07:23:41;65.68;;;43.10;;
2213;SDS011;1113;42.018;23.986;2024-02-21T07:26:09;66.60;;;39.03;;
2213;SDS011;1113;42.018;23.986;2024-02-21T07:28:36;59.65;;;36.17;;
2213;SDS011;1113;42.018;23.986;2024-02-21T07:31:03;58.60;;;34.65;;
2213;SDS011;1113;42.018;23.986;2024-02-21T07:33:32;45.50;;;29.02;;
2213;SDS011;1113;42.018;23.986;2024-02-21T07:36:00;48.28;;;27.85;;
2213;SDS011;1113;42.018;23.986;2024-02-21T07:38:27;33.60;;;22.65;;
2213;SDS011;1113;42.018;23.986;2024-02-21T07:40:55;36.58;;;21.80;;
2213;SDS011;1113;42.018;23.986;2024-02-21T07:43:22;32.78;;;20.50;;
2213;SDS011;1113;42.018;23.986;2024-02-21T07:45:49;26.67;;;17.77;;
2213;SDS011;1113;42.018;23.986;2024-02-21T07:48:16;27.58;;;16.23;;
2213;SDS011;1113;42.018;23.986;2024-02-21T07:50:45;23.97;;;15.30;;
2213;SDS011;1113;42.018;23.986;2024-02-21T07:53:14;22.80;;;16.10;;
2213;SDS011;1113;42.018;23.986;2024-02-21T07:55:41;24.00;;;15.47;;
2213;SDS011;1113;42.018;23.986;2024-02-21T07:58:08;26.67;;;13.80;;
2213;SDS011;1113;42.018;23.986;2024-02-21T08:00:35;20.93;;;13.77;;
2213;SDS011;1113;42.018;23.986;2024-02-21T08:03:02;23.80;;;15.40;;
2213;SDS011;1113;42.018;23.986;2024-02-21T08:05:30;24.50;;;16.20;;
2213;SDS011;1113;42.018;23.986;2024-02-21T08:07:58;23.57;;;16.70;;
2213;SDS011;1113;42.018;23.986;2024-02-21T08:10:25;20.27;;;16.70;;
2213;SDS011;1113;42.018;23.986;2024-02-21T08:12:52;25.77;;;15.20;;
2213;SDS011;1113;42.018;23.986;2024-02-21T08:15:19;23.83;;;16.97;;
2213;SDS011;1113;42.018;23.986;2024-02-21T08:17:49;24.10;;;16.37;;
2213;SDS011;1113;42.018;23.986;2024-02-21T08:20:17;27.63;;;18.37;;
2213;SDS011;1113;42.018;23.986;2024-02-21T08:22:44;26.53;;;16.43;;
2213;SDS011;1113;42.018;23.986;2024-02-21T08:25:12;25.20;;;19.27;;
2213;SDS011;1113;42.018;23.986;2024-02-21T08:27:40;29.50;;;18.60;;
2213;SDS011;1113;42.018;23.986;2024-02-21T08:30:07;23.20;;;15.27;;
2213;SDS011;1113;42.018;23.986;2024-02-21T08:32:34;22.07;;;14.80;;
2213;SDS011;1113;42.018;23.986;2024-02-21T08:35:02;19.53;;;12.87;;
2213;SDS011;1113;42.018;23.986;2024-02-21T08:37:30;21.30;;;14.50;;
2213;SDS011;1113;42.018;23.986;2024-02-21T08:39:57;19.20;;;12.73;;
2213;SDS011;1113;42.018;23.986;2024-02-21T08:42:26;16.70;;;12.13;;
2213;SDS011;1113;42.018;23.986;2024-02-21T08:44:53;21.03;;;12.90;;
2213;SDS011;1113;42.018;23.986;2024-02-21T08:47:20;15.83;;;10.60;;
2213;SDS011;1113;42.018;23.986;2024-02-21T08:49:47;15.00;;;10.10;;
2213;SDS011;1113;42.018;23.986;2024-02-21T08:52:15;17.60;;;10.70;;
2213;SDS011;1113;42.018;23.986;2024-02-21T08:54:42;14.37;;;10.30;;
2213;SDS011;1113;42.018;23.986;2024-02-21T08:57:09;20.03;;;13.47;;
2213;SDS011;1113;42.018;23.986;2024-02-21T08:59:39;17.90;;;11.77;;
2213;SDS011;1113;42.018;23.986;2024-02-21T09:02:06;15.70;;;11.57;;
2213;SDS011;1113;42.018;23.986;2024-02-21T09:04:34;16.10;;;10.47;;
2213;SDS011;1113;42.018;23.986;2024-02-21T09:07:01;15.90;;;10.37;;
2213;SDS011;1113;42.018;23.986;2024-02-21T09:09:28;17.57;;;11.10;;
2213;SDS011;1113;42.018;23.986;2024-02-21T09:11:57;16.93;;;12.97;;
2213;SDS011;1113;42.018;23.986;2024-02-21T09:14:31;16.43;;;11.13;;
2213;SDS011;1113;42.018;23.986;2024-02-21T09:17:00;18.73;;;12.70;;
2213;SDS011;1113;42.018;23.986;2024-02-21T09:19:28;20.37;;;12.60;;
2213;SDS011;1113;42.018;23.986;2024-02-21T09:21:56;18.60;;;13.70;;
2213;SDS011;1113;42.018;23.986;2024-02-21T09:24:23;16.10;;;11.90;;
2213;SDS011;1113;42.018;23.986;2024-02-21T09:26:50;16.23;;;10.60;;
2213;SDS011;1113;42.018;23.986;2024-02-21T09:29:17;14.17;;;9.90;;
2213;SDS011;1113;42.018;23.986;2024-02-21T09:31:44;15.47;;;10.67;;
2213;SDS011;1113;42.018;23.986;2024-02-21T09:34:14;18.93;;;12.40;;
2213;SDS011;1113;42.018;23.986;2024-02-21T09:36:41;20.13;;;13.63;;
2213;SDS011;1113;42.018;23.986;2024-02-21T09:39:09;15.90;;;11.13;;
2213;SDS011;1113;42.018;23.986;2024-02-21T09:41:41;12.57;;;9.17;;
2213;SDS011;1113;42.018;23.986;2024-02-21T09:44:12;13.50;;;9.97;;
2213;SDS011;1113;42.018;23.986;2024-02-21T09:46:41;16.37;;;10.80;;
2213;SDS011;1113;42.018;23.986;2024-02-21T09:49:14;15.50;;;11.77;;
2213;SDS011;1113;42.018;23.986;2024-02-21T09:51:43;13.70;;;10.23;;
2213;SDS011;1113;42.018;23.986;2024-02-21T09:54:10;19.70;;;11.27;;
2213;SDS011;1113;42.018;23.986;2024-02-21T09:56:37;14.70;;;9.50;;
2213;SDS011;1113;42.018;23.986;2024-02-21T09:59:05;15.60;;;10.30;;
2213;SDS011;1113;42.018;23.986;2024-02-21T10:01:32;15.30;;;10.80;;
2213;SDS011;1113;42.018;23.986;2024-02-21T10:03:59;12.60;;;9.10;;
2213;SDS011;1113;42.018;23.986;2024-02-21T10:06:29;11.00;;;8.37;;
2213;SDS011;1113;42.018;23.986;2024-02-21T10:08:57;12.23;;;8.30;;
2213;SDS011;1113;42.018;23.986;2024-02-21T10:11:24;12.27;;;9.13;;
2213;SDS011;1113;42.018;23.986;2024-02-21T10:13:51;11.23;;;7.43;;
2213;SDS011;1113;42.018;23.986;2024-02-21T10:16:18;8.33;;;6.50;;
2213;SDS011;1113;42.018;23.986;2024-02-21T10:18:45;10.23;;;7.70;;
2213;SDS011;1113;42.018;23.986;2024-02-21T10:21:12;12.47;;;8.27;;
2213;SDS011;1113;42.018;23.986;2024-02-21T10:23:44;11.03;;;7.70;;
2213;SDS011;1113;42.018;23.986;2024-02-21T10:26:12;10.97;;;6.67;;
2213;SDS011;1113;42.018;23.986;2024-02-21T10:28:39;13.70;;;8.30;;
2213;SDS011;1113;42.018;23.986;2024-02-21T10:31:07;9.40;;;6.33;;
2213;SDS011;1113;42.018;23.986;2024-02-21T10:33:34;8.87;;;5.80;;
2213;SDS011;1113;42.018;23.986;2024-02-21T10:36:06;9.77;;;7.27;;
2213;SDS011;1113;42.018;23.986;2024-02-21T10:38:35;12.27;;;8.60;;
2213;SDS011;1113;42.018;23.986;2024-02-21T10:41:03;16.90;;;11.87;;
2213;SDS011;1113;42.018;23.986;2024-02-21T10:43:31;14.57;;;10.20;;
2213;SDS011;1113;42.018;23.986;2024-02-21T10:46:02;16.67;;;12.60;;
2213;SDS011;1113;42.018;23.986;2024-02-21T10:48:32;8.43;;;5.93;;
2213;SDS011;1113;42.018;23.986;2024-02-21T10:51:02;11.03;;;6.70;;
2213;SDS011;1113;42.018;23.986;2024-02-21T10:53:34;9.17;;;7.30;;
2213;SDS011;1113;42.018;23.986;2024-02-21T10:56:06;17.73;;;9.90;;
2213;SDS011;1113;42.018;23.986;2024-02-21T10:58:35;14.30;;;10.30;;
2213;SDS011;1113;42.018;23.986;2024-02-21T11:01:02;8.30;;;6.27;;
2213;SDS011;1113;42.018;23.986;2024-02-21T11:03:30;9.27;;;6.60;;
2213;SDS011;1113;42.018;23.986;2024-02-21T11:05:58;4.40;;;3.20;;
2213;SDS011;1113;42.018;23.986;2024-02-21T11:08:25;8.17;;;5.80;;
2213;SDS011;1113;42.018;23.986;2024-02-21T11:10:56;6.30;;;4.20;;
2213;SDS011;1113;42.018;23.986;2024-02-21T11:13:31;6.10;;;4.10;;
2213;SDS011;1113;42.018;23.986;2024-02-21T11:16:05;10.33;;;4.23;;
2213;SDS011;1113;42.018;23.986;2024-02-21T11:18:33;8.50;;;5.70;;
2213;SDS011;1113;42.018;23.986;2024-02-21T11:21:00;7.30;;;5.37;;
2213;SDS011;1113;42.018;23.986;2024-02-21T11:23:28;7.50;;;5.87;;
2213;SDS011;1113;42.018;23.986;2024-02-21T11:26:03;7.03;;;4.40;;
2213;SDS011;1113;42.018;23.986;2024-02-21T11:28:32;5.00;;;3.53;;
2213;SDS011;1113;42.018;23.986;2024-02-21T11:31:06;5.07;;;3.47;;
2213;SDS011;1113;42.018;23.986;2024-02-21T11:33:34;7.70;;;4.60;;
2213;SDS011;1113;42.018;23.986;2024-02-21T11:36:01;7.10;;;4.80;;
2213;SDS011;1113;42.018;23.986;2024-02-21T11:38:29;8.97;;;5.40;;
2213;SDS011;1113;42.018;23.986;2024-02-21T11:40:56;13.43;;;8.57;;
2213;SDS011;1113;42.018;23.986;2024-02-21T11:43:25;8.00;;;5.60;;
2213;SDS011;1113;42.018;23.986;2024-02-21T11:46:00;6.70;;;4.80;;
2213;SDS011;1113;42.018;23.986;2024-02-21T11:48:28;7.27;;;5.77;;
2213;SDS011;1113;42.018;23.986;2024-02-21T11:50:56;7.30;;;4.57;;
2213;SDS011;1113;42.018;23.986;2024-02-21T11:53:23;6.20;;;3.80;;
2213;SDS011;1113;42.018;23.986;2024-02-21T11:55:52;5.27;;;4.03;;
2213;SDS011;1113;42.018;23.986;2024-02-21T11:58:20;8.20;;;5.07;;
2213;SDS011;1113;42.018;23.986;2024-02-21T12:00:47;3.60;;;3.10;;
2213;SDS011;1113;42.018;23.986;2024-02-21T12:03:16;5.40;;;3.90;;
2213;SDS011;1113;42.018;23.986;2024-02-21T12:05:43;4.73;;;3.37;;
2213;SDS011;1113;42.018;23.986;2024-02-21T12:08:12;7.20;;;3.10;;
2213;SDS011;1113;42.018;23.986;2024-02-21T12:10:39;7.90;;;4.17;;
2213;SDS011;1113;42.018;23.986;2024-02-21T12:13:06;7.23;;;4.83;;
2213;SDS011;1113;42.018;23.986;2024-02-21T12:15:33;9.23;;;4.80;;
2213;SDS011;1113;42.018;23.986;2024-02-21T12:18:00;8.00;;;5.20;;
2213;SDS011;1113;42.018;23.986;2024-02-21T12:20:29;8.83;;;5.20;;
2213;SDS011;1113;42.018;23.986;2024-02-21T12:22:57;6.80;;;4.07;;
2213;SDS011;1113;42.018;23.986;2024-02-21T12:25:26;7.10;;;4.50;;
2213;SDS011;1113;42.018;23.986;2024-02-21T12:27:53;7.40;;;3.93;;
2213;SDS011;1113;42.018;23.986;2024-02-21T12:30:21;5.50;;;3.30;;
2213;SDS011;1113;42.018;23.986;2024-02-21T12:32:49;9.47;;;4.90;;
2213;SDS011;1113;42.018;23.986;2024-02-21T12:35:16;8.87;;;5.00;;
2213;SDS011;1113;42.018;23.986;2024-02-21T12:37:45;4.90;;;3.00;;
2213;SDS011;1113;42.018;23.986;2024-02-21T12:40:12;11.57;;;8.10;;
2213;SDS011;1113;42.018;23.986;2024-02-21T12:42:40;10.20;;;6.13;;
2213;SDS011;1113;42.018;23.986;2024-02-21T12:45:07;10.87;;;5.70;;
2213;SDS011;1113;42.018;23.986;2024-02-21T12:47:34;4.57;;;3.37;;
2213;SDS011;1113;42.018;23.986;2024-02-21T12:50:01;4.43;;;2.93;;
2213;SDS011;1113;42.018;23.986;2024-02-21T12:52:32;3.50;;;2.53;;
2213;SDS011;1113;42.018;23.986;2024-02-21T12:55:01;4.13;;;3.03;;
2213;SDS011;1113;42.018;23.986;2024-02-21T12:57:28;4.90;;;3.27;;
2213;SDS011;1113;42.018;23.986;2024-02-21T12:59:56;4.43;;;3.00;;
2213;SDS011;1113;42.018;23.986;2024-02-21T13:02:23;16.87;;;6.97;;
2213;SDS011;1113;42.018;23.986;2024-02-21T13:04:50;10.17;;;6.23;;
2213;SDS011;1113;42.018;23.986;2024-02-21T13:07:17;5.33;;;3.53;;
2213;SDS011;1113;42.018;23.986;2024-02-21T13:09:44;7.60;;;5.07;;
2213;SDS011;1113;42.018;23.986;2024-02-21T13:12:12;7.53;;;4.70;;
2213;SDS011;1113;42.018;23.986;2024-02-21T13:14:40;7.50;;;4.83;;
2213;SDS011;1113;42.018;23.986;2024-02-21T13:17:09;5.93;;;4.60;;
2213;SDS011;1113;42.018;23.986;2024-02-21T13:19:36;8.43;;;5.00;;
2213;SDS011;1113;42.018;23.986;2024-02-21T13:22:03;8.20;;;6.20;;
2213;SDS011;1113;42.018;23.986;2024-02-21T13:24:30;4.93;;;3.87;;
2213;SDS011;1113;42.018;23.986;2024-02-21T13:26:57;5.37;;;3.50;;
2213;SDS011;1113;42.018;23.986;2024-02-21T13:29:25;2.97;;;2.40;;
2213;SDS011;1113;42.018;23.986;2024-02-21T13:31:53;3.70;;;2.47;;
2213;SDS011;1113;42.018;23.986;2024-02-21T13:34:20;10.23;;;3.63;;
2213;SDS011;1113;42.018;23.986;2024-02-21T13:36:47;5.00;;;3.10;;
2213;SDS011;1113;42.018;23.986;2024-02-21T13:39:15;3.33;;;2.23;;
2213;SDS011;1113;42.018;23.986;2024-02-21T13:41:44;4.87;;;3.13;;
2213;SDS011;1113;42.018;23.986;2024-02-21T13:44:12;10.10;;;6.17;;
2213;SDS011;1113;42.018;23.986;2024-02-21T13:46:40;13.30;;;7.60;;
2213;SDS011;1113;42.018;23.986;2024-02-21T13:49:08;14.20;;;7.53;;
2213;SDS011;1113;42.018;23.986;2024-02-21T13:51:35;14.10;;;9.80;;
2213;SDS011;1113;42.018;23.986;2024-02-21T13:54:03;10.53;;;7.00;;
2213;SDS011;1113;42.018;23.986;2024-02-21T13:56:30;10.73;;;7.20;;
2213;SDS011;1113;42.018;23.986;2024-02-21T13:58:57;12.17;;;6.70;;
2213;SDS011;1113;42.018;23.986;2024-02-21T14:01:25;16.90;;;9.17;;
2213;SDS011;1113;42.018;23.986;2024-02-21T14:03:54;14.60;;;10.90;;
2213;SDS011;1113;42.018;23.986;2024-02-21T14:06:21;14.07;;;10.17;;
2213;SDS011;1113;42.018;23.986;2024-02-21T14:08:48;10.40;;;7.53;;
2213;SDS011;1113;42.018;23.986;2024-02-21T14:11:16;13.87;;;9.53;;
2213;SDS011;1113;42.018;23.986;2024-02-21T14:13:43;13.43;;;7.50;;
2213;SDS011;1113;42.018;23.986;2024-02-21T14:16:10;11.10;;;7.90;;
2213;SDS011;1113;42.018;23.986;2024-02-21T14:18:38;20.13;;;9.70;;
2213;SDS011;1113;42.018;23.986;2024-02-21T14:21:09;13.73;;;8.40;;
2213;SDS011;1113;42.018;23.986;2024-02-21T14:23:37;13.10;;;9.00;;
2213;SDS011;1113;42.018;23.986;2024-02-21T14:26:04;13.10;;;6.90;;
2213;SDS011;1113;42.018;23.986;2024-02-21T14:28:31;13.13;;;8.60;;
2213;SDS011;1113;42.018;23.986;2024-02-21T14:30:59;9.90;;;6.60;;
2213;SDS011;1113;42.018;23.986;2024-02-21T14:33:26;11.57;;;7.60;;
2213;SDS011;1113;42.018;23.986;2024-02-21T14:35:53;8.50;;;5.63;;
2213;SDS011;1113;42.018;23.986;2024-02-21T14:38:21;9.80;;;6.13;;
2213;SDS011;1113;42.018;23.986;2024-02-21T14:40:48;11.17;;;8.07;;
2213;SDS011;1113;42.018;23.986;2024-02-21T14:43:15;8.93;;;6.20;;